Overview Statistics Trail Chart Weather Telemetry Raw packets
 

This is the latest recevied weather packets stored in our database for station/object OE3MHU-12. If no packets are shown the sender has not sent any weather packets the latest 10 day(s).

<< 1 2 3 4 5 6 >>
Time Temp. Humidity Pressure Rain* Wind** Luminosity Snow
1788527570 30° C 45% 1013.2 hPa 0 mm - - -
1788520371 28.33° C 48% 1014.8 hPa 0 mm - - -
1788514971 28.33° C 49% 1016.4 hPa 0 mm - - -
1788513171 26.67° C 52% 1016.6 hPa 0 mm - - -
1788509571 25° C 57% 1017 hPa 0 mm - - -
1788507771 26.11° C 55% 1017.1 hPa 0 mm - - -
1788505971 23.89° C 59% 1017.3 hPa 0 mm - - -
1788504171 22.22° C 65% 1017.5 hPa 0 mm - - -
1788502371 20.56° C 69% 1017.3 hPa 0 mm - - -
1788500572 18.89° C 70% 1017.4 hPa 0 mm - - -
1788498772 18.89° C 69% 1017.3 hPa 0 mm - - -
1788496972 18.89° C 68% 1017.3 hPa 0 mm - - -
1788495172 18.89° C 67% 1017.3 hPa 0 mm - - -
1788491572 19.44° C 66% 1017.6 hPa 0 mm - - -
1788486172 19.44° C 68% 1017.7 hPa 0 mm - - -
1788484372 19.44° C 68% 1017.7 hPa 0 mm - - -
1788482572 18.89° C 69% 1018 hPa 0 mm - - -
1788480773 18.33° C 70% 1018.2 hPa 0 mm - - -
1788478973 18.33° C 71% 1018.3 hPa 0 mm - - -
1788475373 18.33° C 72% 1018.4 hPa 0 mm - - -
1788471774 18.33° C 72% 1018.9 hPa 0 mm - - -
1788469973 18.33° C 71% 1019.2 hPa 0 mm - - -
1788466442 18.89° C 70% 1019.2 hPa 0 mm - - -
1788466373 18.89° C 70% 1019.2 hPa 0 mm - - -
1788464573 19.44° C 69% 1019.1 hPa 0 mm - - -

* Rain latest hour (hover to see other rain measurements)
** Current wind speed in m/s (hover to see current wind gust speed)